sensor_id;sensor_type;location;lat;lon;timestamp;P1;durP1;ratioP1;P2;durP2;ratioP2
76693;SDS011;65625;52.136;5.424;2023-02-27T00:02:20;13.50;;;4.03;;
76693;SDS011;65625;52.136;5.424;2023-02-27T00:04:47;8.75;;;2.95;;
76693;SDS011;65625;52.136;5.424;2023-02-27T00:07:13;7.40;;;3.22;;
76693;SDS011;65625;52.136;5.424;2023-02-27T00:09:40;9.43;;;3.45;;
76693;SDS011;65625;52.136;5.424;2023-02-27T00:12:07;6.68;;;2.75;;
76693;SDS011;65625;52.136;5.424;2023-02-27T00:14:34;10.40;;;2.72;;
76693;SDS011;65625;52.136;5.424;2023-02-27T00:17:01;7.05;;;2.70;;
76693;SDS011;65625;52.136;5.424;2023-02-27T00:19:27;6.13;;;2.50;;
76693;SDS011;65625;52.136;5.424;2023-02-27T00:21:54;6.22;;;2.42;;
76693;SDS011;65625;52.136;5.424;2023-02-27T00:24:20;7.90;;;2.40;;
76693;SDS011;65625;52.136;5.424;2023-02-27T00:26:47;7.03;;;2.55;;
76693;SDS011;65625;52.136;5.424;2023-02-27T00:29:16;5.80;;;2.17;;
76693;SDS011;65625;52.136;5.424;2023-02-27T00:31:42;9.13;;;2.50;;
76693;SDS011;65625;52.136;5.424;2023-02-27T00:34:09;7.28;;;2.50;;
76693;SDS011;65625;52.136;5.424;2023-02-27T00:36:35;6.80;;;2.50;;
76693;SDS011;65625;52.136;5.424;2023-02-27T00:39:02;10.13;;;2.60;;
76693;SDS011;65625;52.136;5.424;2023-02-27T00:41:28;5.45;;;2.40;;
76693;SDS011;65625;52.136;5.424;2023-02-27T00:43:55;3.25;;;2.00;;
76693;SDS011;65625;52.136;5.424;2023-02-27T00:46:22;7.40;;;2.25;;
76693;SDS011;65625;52.136;5.424;2023-02-27T00:48:49;7.47;;;2.40;;
76693;SDS011;65625;52.136;5.424;2023-02-27T00:51:16;7.90;;;2.58;;
76693;SDS011;65625;52.136;5.424;2023-02-27T00:53:45;5.88;;;2.47;;
76693;SDS011;65625;52.136;5.424;2023-02-27T00:56:13;4.90;;;1.95;;
76693;SDS011;65625;52.136;5.424;2023-02-27T00:58:39;6.07;;;2.17;;
76693;SDS011;65625;52.136;5.424;2023-02-27T01:01:06;6.57;;;2.35;;
76693;SDS011;65625;52.136;5.424;2023-02-27T01:03:32;6.63;;;2.05;;
76693;SDS011;65625;52.136;5.424;2023-02-27T01:05:59;9.15;;;2.30;;
76693;SDS011;65625;52.136;5.424;2023-02-27T01:08:26;5.43;;;2.05;;
76693;SDS011;65625;52.136;5.424;2023-02-27T01:10:53;4.43;;;2.10;;
76693;SDS011;65625;52.136;5.424;2023-02-27T01:13:21;6.85;;;2.38;;
76693;SDS011;65625;52.136;5.424;2023-02-27T01:15:48;8.25;;;2.10;;
76693;SDS011;65625;52.136;5.424;2023-02-27T01:18:14;8.05;;;2.65;;
76693;SDS011;65625;52.136;5.424;2023-02-27T01:20:41;7.85;;;2.10;;
76693;SDS011;65625;52.136;5.424;2023-02-27T01:23:07;4.85;;;2.25;;
76693;SDS011;65625;52.136;5.424;2023-02-27T01:25:33;4.43;;;2.08;;
76693;SDS011;65625;52.136;5.424;2023-02-27T01:28:00;6.15;;;2.05;;
76693;SDS011;65625;52.136;5.424;2023-02-27T01:30:26;7.72;;;2.38;;
76693;SDS011;65625;52.136;5.424;2023-02-27T01:32:53;5.45;;;2.05;;
76693;SDS011;65625;52.136;5.424;2023-02-27T01:35:20;8.43;;;2.00;;
76693;SDS011;65625;52.136;5.424;2023-02-27T01:37:47;6.38;;;2.28;;
76693;SDS011;65625;52.136;5.424;2023-02-27T01:40:14;5.22;;;1.98;;
76693;SDS011;65625;52.136;5.424;2023-02-27T01:42:40;8.68;;;2.53;;
76693;SDS011;65625;52.136;5.424;2023-02-27T01:47:37;8.70;;;2.00;;
76693;SDS011;65625;52.136;5.424;2023-02-27T01:50:06;6.55;;;1.98;;
76693;SDS011;65625;52.136;5.424;2023-02-27T01:52:34;6.25;;;2.30;;
76693;SDS011;65625;52.136;5.424;2023-02-27T01:55:03;7.45;;;2.00;;
76693;SDS011;65625;52.136;5.424;2023-02-27T01:57:34;4.75;;;2.10;;
76693;SDS011;65625;52.136;5.424;2023-02-27T02:00:01;4.93;;;1.35;;
76693;SDS011;65625;52.136;5.424;2023-02-27T02:02:38;5.80;;;1.77;;
76693;SDS011;65625;52.136;5.424;2023-02-27T02:05:07;5.05;;;1.85;;
76693;SDS011;65625;52.136;5.424;2023-02-27T02:07:35;4.55;;;1.83;;
76693;SDS011;65625;52.136;5.424;2023-02-27T02:10:06;7.00;;;1.70;;
76693;SDS011;65625;52.136;5.424;2023-02-27T02:12:36;4.63;;;1.67;;
76693;SDS011;65625;52.136;5.424;2023-02-27T02:15:04;5.18;;;1.90;;
76693;SDS011;65625;52.136;5.424;2023-02-27T02:20:24;6.60;;;1.92;;
76693;SDS011;65625;52.136;5.424;2023-02-27T02:25:52;5.85;;;1.95;;
76693;SDS011;65625;52.136;5.424;2023-02-27T02:39:17;6.70;;;2.00;;
76693;SDS011;65625;52.136;5.424;2023-02-27T02:47:43;3.60;;;1.80;;
76693;SDS011;65625;52.136;5.424;2023-02-27T02:50:21;5.47;;;1.55;;
76693;SDS011;65625;52.136;5.424;2023-02-27T02:53:03;4.45;;;1.45;;
76693;SDS011;65625;52.136;5.424;2023-02-27T02:56:06;4.82;;;1.42;;
76693;SDS011;65625;52.136;5.424;2023-02-27T03:01:35;4.05;;;1.27;;
76693;SDS011;65625;52.136;5.424;2023-02-27T03:04:16;4.72;;;1.67;;
76693;SDS011;65625;52.136;5.424;2023-02-27T03:06:51;7.38;;;1.60;;
76693;SDS011;65625;52.136;5.424;2023-02-27T03:12:01;3.72;;;1.58;;
76693;SDS011;65625;52.136;5.424;2023-02-27T03:14:32;5.25;;;1.45;;
76693;SDS011;65625;52.136;5.424;2023-02-27T03:17:00;4.95;;;1.50;;
76693;SDS011;65625;52.136;5.424;2023-02-27T03:19:33;5.70;;;1.45;;
76693;SDS011;65625;52.136;5.424;2023-02-27T03:22:07;3.63;;;1.40;;
76693;SDS011;65625;52.136;5.424;2023-02-27T03:24:44;4.05;;;1.20;;
76693;SDS011;65625;52.136;5.424;2023-02-27T03:27:22;3.53;;;0.85;;
76693;SDS011;65625;52.136;5.424;2023-02-27T03:30:15;1.85;;;1.00;;
76693;SDS011;65625;52.136;5.424;2023-02-27T03:33:07;3.40;;;1.00;;
76693;SDS011;65625;52.136;5.424;2023-02-27T03:35:49;4.60;;;1.35;;
76693;SDS011;65625;52.136;5.424;2023-02-27T03:44:12;4.22;;;1.02;;
76693;SDS011;65625;52.136;5.424;2023-02-27T03:46:47;5.88;;;1.42;;
76693;SDS011;65625;52.136;5.424;2023-02-27T03:49:13;2.83;;;1.00;;
76693;SDS011;65625;52.136;5.424;2023-02-27T03:51:40;3.58;;;0.95;;
76693;SDS011;65625;52.136;5.424;2023-02-27T03:54:11;3.20;;;1.17;;
76693;SDS011;65625;52.136;5.424;2023-02-27T03:56:43;3.42;;;1.00;;
76693;SDS011;65625;52.136;5.424;2023-02-27T03:59:15;4.30;;;1.20;;
76693;SDS011;65625;52.136;5.424;2023-02-27T04:01:47;3.92;;;0.82;;
76693;SDS011;65625;52.136;5.424;2023-02-27T04:04:15;3.20;;;1.05;;
76693;SDS011;65625;52.136;5.424;2023-02-27T04:10:18;2.83;;;0.90;;
76693;SDS011;65625;52.136;5.424;2023-02-27T04:29:53;3.90;;;0.77;;
76693;SDS011;65625;52.136;5.424;2023-02-27T04:32:30;3.53;;;1.10;;
76693;SDS011;65625;52.136;5.424;2023-02-27T04:35:09;6.93;;;1.00;;
76693;SDS011;65625;52.136;5.424;2023-02-27T04:40:43;4.00;;;1.05;;
76693;SDS011;65625;52.136;5.424;2023-02-27T04:43:19;4.47;;;1.10;;
76693;SDS011;65625;52.136;5.424;2023-02-27T04:45:49;3.40;;;1.10;;
76693;SDS011;65625;52.136;5.424;2023-02-27T04:48:21;4.40;;;1.35;;
76693;SDS011;65625;52.136;5.424;2023-02-27T04:50:57;2.80;;;1.33;;
76693;SDS011;65625;52.136;5.424;2023-02-27T04:56:04;1.85;;;1.10;;
76693;SDS011;65625;52.136;5.424;2023-02-27T04:58:37;3.70;;;1.30;;
76693;SDS011;65625;52.136;5.424;2023-02-27T05:01:17;3.63;;;0.90;;
76693;SDS011;65625;52.136;5.424;2023-02-27T05:03:48;3.35;;;1.17;;
76693;SDS011;65625;52.136;5.424;2023-02-27T05:06:19;4.50;;;1.10;;
76693;SDS011;65625;52.136;5.424;2023-02-27T05:11:48;5.63;;;1.65;;
76693;SDS011;65625;52.136;5.424;2023-02-27T05:19:34;2.70;;;1.00;;
76693;SDS011;65625;52.136;5.424;2023-02-27T05:22:12;4.03;;;1.10;;
76693;SDS011;65625;52.136;5.424;2023-02-27T05:25:09;2.83;;;1.10;;
76693;SDS011;65625;52.136;5.424;2023-02-27T05:27:43;3.95;;;1.27;;
76693;SDS011;65625;52.136;5.424;2023-02-27T05:33:12;4.90;;;1.33;;
76693;SDS011;65625;52.136;5.424;2023-02-27T05:35:46;6.43;;;1.25;;
76693;SDS011;65625;52.136;5.424;2023-02-27T05:40:57;6.10;;;1.27;;
76693;SDS011;65625;52.136;5.424;2023-02-27T05:43:31;5.65;;;1.23;;
76693;SDS011;65625;52.136;5.424;2023-02-27T05:46:15;3.33;;;1.08;;
76693;SDS011;65625;52.136;5.424;2023-02-27T05:48:48;5.13;;;1.52;;
76693;SDS011;65625;52.136;5.424;2023-02-27T05:51:20;4.28;;;1.35;;
76693;SDS011;65625;52.136;5.424;2023-02-27T05:53:55;4.72;;;1.40;;
76693;SDS011;65625;52.136;5.424;2023-02-27T05:56:25;2.47;;;1.17;;
76693;SDS011;65625;52.136;5.424;2023-02-27T05:59:00;5.18;;;1.70;;
76693;SDS011;65625;52.136;5.424;2023-02-27T06:01:31;4.28;;;1.58;;
76693;SDS011;65625;52.136;5.424;2023-02-27T06:03:58;3.72;;;1.90;;
76693;SDS011;65625;52.136;5.424;2023-02-27T06:06:25;2.92;;;1.55;;
76693;SDS011;65625;52.136;5.424;2023-02-27T06:08:52;3.95;;;1.48;;
76693;SDS011;65625;52.136;5.424;2023-02-27T06:11:18;5.88;;;1.98;;
76693;SDS011;65625;52.136;5.424;2023-02-27T06:13:45;6.15;;;2.20;;
76693;SDS011;65625;52.136;5.424;2023-02-27T06:16:12;6.03;;;2.60;;
76693;SDS011;65625;52.136;5.424;2023-02-27T06:21:07;7.00;;;2.20;;
76693;SDS011;65625;52.136;5.424;2023-02-27T06:23:34;6.90;;;2.28;;
76693;SDS011;65625;52.136;5.424;2023-02-27T06:26:00;9.38;;;2.33;;
76693;SDS011;65625;52.136;5.424;2023-02-27T06:28:27;7.72;;;2.05;;
76693;SDS011;65625;52.136;5.424;2023-02-27T06:30:53;5.80;;;1.92;;
76693;SDS011;65625;52.136;5.424;2023-02-27T06:33:25;6.15;;;2.03;;
76693;SDS011;65625;52.136;5.424;2023-02-27T06:35:51;9.18;;;2.55;;
76693;SDS011;65625;52.136;5.424;2023-02-27T06:38:18;11.02;;;2.20;;
76693;SDS011;65625;52.136;5.424;2023-02-27T06:40:45;3.65;;;1.77;;
76693;SDS011;65625;52.136;5.424;2023-02-27T06:43:11;7.55;;;2.80;;
76693;SDS011;65625;52.136;5.424;2023-02-27T06:45:38;7.43;;;1.80;;
76693;SDS011;65625;52.136;5.424;2023-02-27T06:48:04;6.38;;;1.80;;
76693;SDS011;65625;52.136;5.424;2023-02-27T06:50:31;6.28;;;2.15;;
76693;SDS011;65625;52.136;5.424;2023-02-27T06:52:58;11.70;;;2.75;;
76693;SDS011;65625;52.136;5.424;2023-02-27T06:55:24;5.88;;;1.73;;
76693;SDS011;65625;52.136;5.424;2023-02-27T06:57:51;3.83;;;1.70;;
76693;SDS011;65625;52.136;5.424;2023-02-27T07:00:17;6.30;;;1.73;;
76693;SDS011;65625;52.136;5.424;2023-02-27T07:02:44;8.07;;;2.33;;
76693;SDS011;65625;52.136;5.424;2023-02-27T07:05:11;6.30;;;2.08;;
76693;SDS011;65625;52.136;5.424;2023-02-27T07:07:37;4.97;;;1.52;;
76693;SDS011;65625;52.136;5.424;2023-02-27T07:10:06;4.85;;;1.67;;
76693;SDS011;65625;52.136;5.424;2023-02-27T07:12:37;4.82;;;2.10;;
76693;SDS011;65625;52.136;5.424;2023-02-27T07:15:04;5.90;;;2.47;;
76693;SDS011;65625;52.136;5.424;2023-02-27T07:17:32;8.30;;;2.40;;
76693;SDS011;65625;52.136;5.424;2023-02-27T07:19:58;5.18;;;2.15;;
76693;SDS011;65625;52.136;5.424;2023-02-27T07:22:25;7.05;;;2.47;;
76693;SDS011;65625;52.136;5.424;2023-02-27T07:24:52;4.15;;;2.55;;
76693;SDS011;65625;52.136;5.424;2023-02-27T07:27:19;10.20;;;3.05;;
76693;SDS011;65625;52.136;5.424;2023-02-27T07:29:45;5.63;;;3.00;;
76693;SDS011;65625;52.136;5.424;2023-02-27T07:32:11;4.97;;;2.50;;
76693;SDS011;65625;52.136;5.424;2023-02-27T07:34:38;6.72;;;2.10;;
76693;SDS011;65625;52.136;5.424;2023-02-27T07:37:04;8.57;;;1.90;;
76693;SDS011;65625;52.136;5.424;2023-02-27T07:39:31;6.25;;;1.98;;
76693;SDS011;65625;52.136;5.424;2023-02-27T07:41:58;8.93;;;1.88;;
76693;SDS011;65625;52.136;5.424;2023-02-27T07:44:25;7.05;;;1.70;;
76693;SDS011;65625;52.136;5.424;2023-02-27T07:46:51;6.30;;;1.88;;
76693;SDS011;65625;52.136;5.424;2023-02-27T07:49:18;7.70;;;2.45;;
76693;SDS011;65625;52.136;5.424;2023-02-27T07:51:45;3.53;;;2.03;;
76693;SDS011;65625;52.136;5.424;2023-02-27T07:54:11;4.30;;;1.50;;
76693;SDS011;65625;52.136;5.424;2023-02-27T07:56:38;7.25;;;2.42;;
76693;SDS011;65625;52.136;5.424;2023-02-27T07:59:04;4.75;;;1.50;;
76693;SDS011;65625;52.136;5.424;2023-02-27T08:01:31;4.97;;;1.80;;
76693;SDS011;65625;52.136;5.424;2023-02-27T08:03:57;9.00;;;2.08;;
76693;SDS011;65625;52.136;5.424;2023-02-27T08:06:24;3.15;;;1.42;;
76693;SDS011;65625;52.136;5.424;2023-02-27T08:08:51;3.50;;;1.65;;
76693;SDS011;65625;52.136;5.424;2023-02-27T08:11:17;3.70;;;1.10;;
76693;SDS011;65625;52.136;5.424;2023-02-27T08:13:44;4.28;;;1.63;;
76693;SDS011;65625;52.136;5.424;2023-02-27T08:16:28;4.75;;;1.80;;
76693;SDS011;65625;52.136;5.424;2023-02-27T08:21:25;4.10;;;1.27;;
76693;SDS011;65625;52.136;5.424;2023-02-27T08:23:52;2.03;;;1.00;;
76693;SDS011;65625;52.136;5.424;2023-02-27T08:26:19;6.03;;;1.40;;
76693;SDS011;65625;52.136;5.424;2023-02-27T08:28:46;4.75;;;1.13;;
76693;SDS011;65625;52.136;5.424;2023-02-27T08:31:13;5.63;;;1.70;;
76693;SDS011;65625;52.136;5.424;2023-02-27T08:33:39;5.55;;;1.00;;
76693;SDS011;65625;52.136;5.424;2023-02-27T08:36:06;4.82;;;1.33;;
76693;SDS011;65625;52.136;5.424;2023-02-27T08:38:33;4.18;;;1.33;;
76693;SDS011;65625;52.136;5.424;2023-02-27T08:40:59;3.65;;;1.45;;
76693;SDS011;65625;52.136;5.424;2023-02-27T08:43:26;2.33;;;0.98;;
76693;SDS011;65625;52.136;5.424;2023-02-27T08:45:52;3.95;;;1.13;;
76693;SDS011;65625;52.136;5.424;2023-02-27T08:48:19;3.67;;;1.13;;
76693;SDS011;65625;52.136;5.424;2023-02-27T08:50:46;3.50;;;1.15;;
76693;SDS011;65625;52.136;5.424;2023-02-27T08:53:13;3.10;;;1.08;;
76693;SDS011;65625;52.136;5.424;2023-02-27T08:55:39;6.22;;;1.50;;
76693;SDS011;65625;52.136;5.424;2023-02-27T08:58:08;3.33;;;0.90;;
76693;SDS011;65625;52.136;5.424;2023-02-27T09:00:35;3.38;;;0.90;;
76693;SDS011;65625;52.136;5.424;2023-02-27T09:03:02;4.90;;;1.40;;
76693;SDS011;65625;52.136;5.424;2023-02-27T09:05:29;4.35;;;1.27;;
76693;SDS011;65625;52.136;5.424;2023-02-27T09:07:55;6.55;;;1.67;;
76693;SDS011;65625;52.136;5.424;2023-02-27T09:10:22;7.90;;;1.98;;
76693;SDS011;65625;52.136;5.424;2023-02-27T09:12:48;4.82;;;1.45;;
76693;SDS011;65625;52.136;5.424;2023-02-27T09:15:15;5.20;;;1.50;;
76693;SDS011;65625;52.136;5.424;2023-02-27T09:17:41;3.83;;;1.15;;
76693;SDS011;65625;52.136;5.424;2023-02-27T09:20:08;8.15;;;1.10;;
76693;SDS011;65625;52.136;5.424;2023-02-27T09:22:36;4.07;;;1.00;;
76693;SDS011;65625;52.136;5.424;2023-02-27T09:25:03;4.57;;;1.20;;
76693;SDS011;65625;52.136;5.424;2023-02-27T09:27:29;2.90;;;1.05;;
76693;SDS011;65625;52.136;5.424;2023-02-27T09:29:56;3.72;;;1.10;;
76693;SDS011;65625;52.136;5.424;2023-02-27T09:32:23;5.05;;;1.30;;
76693;SDS011;65625;52.136;5.424;2023-02-27T09:34:53;3.97;;;0.90;;
76693;SDS011;65625;52.136;5.424;2023-02-27T09:37:19;3.75;;;1.52;;
76693;SDS011;65625;52.136;5.424;2023-02-27T09:39:45;6.53;;;2.10;;
76693;SDS011;65625;52.136;5.424;2023-02-27T09:44:43;4.13;;;1.25;;
76693;SDS011;65625;52.136;5.424;2023-02-27T09:47:15;3.05;;;1.00;;
76693;SDS011;65625;52.136;5.424;2023-02-27T09:50:00;4.45;;;1.60;;
76693;SDS011;65625;52.136;5.424;2023-02-27T09:52:30;6.47;;;1.30;;
76693;SDS011;65625;52.136;5.424;2023-02-27T09:54:58;7.13;;;1.10;;
76693;SDS011;65625;52.136;5.424;2023-02-27T09:58:01;2.92;;;0.98;;
76693;SDS011;65625;52.136;5.424;2023-02-27T10:00:48;4.97;;;1.60;;
76693;SDS011;65625;52.136;5.424;2023-02-27T10:08:58;4.47;;;1.25;;
76693;SDS011;65625;52.136;5.424;2023-02-27T10:17:01;1.95;;;0.70;;
76693;SDS011;65625;52.136;5.424;2023-02-27T10:19:33;3.35;;;0.60;;
76693;SDS011;65625;52.136;5.424;2023-02-27T10:22:04;1.95;;;0.60;;
76693;SDS011;65625;52.136;5.424;2023-02-27T10:24:55;5.97;;;0.70;;
76693;SDS011;65625;52.136;5.424;2023-02-27T10:27:28;1.48;;;0.52;;
76693;SDS011;65625;52.136;5.424;2023-02-27T10:29:57;3.33;;;0.70;;
76693;SDS011;65625;52.136;5.424;2023-02-27T10:32:50;4.38;;;0.80;;
76693;SDS011;65625;52.136;5.424;2023-02-27T10:35:28;3.97;;;0.70;;
76693;SDS011;65625;52.136;5.424;2023-02-27T10:38:00;3.97;;;0.90;;
76693;SDS011;65625;52.136;5.424;2023-02-27T10:40:29;2.08;;;0.60;;
76693;SDS011;65625;52.136;5.424;2023-02-27T10:42:56;3.50;;;0.90;;
76693;SDS011;65625;52.136;5.424;2023-02-27T10:45:26;2.13;;;0.60;;
76693;SDS011;65625;52.136;5.424;2023-02-27T10:47:52;4.13;;;0.63;;
76693;SDS011;65625;52.136;5.424;2023-02-27T10:50:24;3.17;;;0.68;;
76693;SDS011;65625;52.136;5.424;2023-02-27T10:52:55;3.95;;;0.65;;
76693;SDS011;65625;52.136;5.424;2023-02-27T10:55:25;2.30;;;0.70;;
76693;SDS011;65625;52.136;5.424;2023-02-27T10:57:54;1.33;;;0.40;;
76693;SDS011;65625;52.136;5.424;2023-02-27T11:03:19;0.45;;;0.20;;
76693;SDS011;65625;52.136;5.424;2023-02-27T11:05:51;3.50;;;0.90;;
76693;SDS011;65625;52.136;5.424;2023-02-27T11:08:22;1.73;;;0.47;;
76693;SDS011;65625;52.136;5.424;2023-02-27T11:10:57;3.53;;;0.70;;
76693;SDS011;65625;52.136;5.424;2023-02-27T11:13:30;1.73;;;0.38;;
76693;SDS011;65625;52.136;5.424;2023-02-27T11:18:28;2.40;;;0.52;;
76693;SDS011;65625;52.136;5.424;2023-02-27T11:21:10;1.88;;;0.60;;
76693;SDS011;65625;52.136;5.424;2023-02-27T11:23:38;1.85;;;0.52;;
76693;SDS011;65625;52.136;5.424;2023-02-27T11:26:35;1.17;;;0.57;;
76693;SDS011;65625;52.136;5.424;2023-02-27T11:31:33;2.05;;;0.68;;
76693;SDS011;65625;52.136;5.424;2023-02-27T11:34:02;1.52;;;0.40;;
76693;SDS011;65625;52.136;5.424;2023-02-27T11:36:38;1.60;;;0.77;;
76693;SDS011;65625;52.136;5.424;2023-02-27T11:39:26;2.05;;;0.55;;
76693;SDS011;65625;52.136;5.424;2023-02-27T11:42:14;1.88;;;0.43;;
76693;SDS011;65625;52.136;5.424;2023-02-27T11:44:50;2.47;;;0.52;;
76693;SDS011;65625;52.136;5.424;2023-02-27T11:47:23;0.85;;;0.38;;
76693;SDS011;65625;52.136;5.424;2023-02-27T11:50:02;2.33;;;0.57;;
76693;SDS011;65625;52.136;5.424;2023-02-27T11:55:16;1.75;;;0.63;;
76693;SDS011;65625;52.136;5.424;2023-02-27T11:57:48;1.60;;;0.80;;
76693;SDS011;65625;52.136;5.424;2023-02-27T12:00:22;3.25;;;0.47;;
76693;SDS011;65625;52.136;5.424;2023-02-27T12:06:02;4.32;;;1.13;;
76693;SDS011;65625;52.136;5.424;2023-02-27T12:08:37;1.63;;;0.52;;
76693;SDS011;65625;52.136;5.424;2023-02-27T12:11:19;3.20;;;0.50;;
76693;SDS011;65625;52.136;5.424;2023-02-27T12:14:02;1.30;;;0.32;;
76693;SDS011;65625;52.136;5.424;2023-02-27T12:16:40;2.05;;;0.45;;
76693;SDS011;65625;52.136;5.424;2023-02-27T12:19:15;1.65;;;0.50;;
76693;SDS011;65625;52.136;5.424;2023-02-27T12:21:47;1.67;;;0.30;;
76693;SDS011;65625;52.136;5.424;2023-02-27T12:24:21;1.90;;;0.40;;
76693;SDS011;65625;52.136;5.424;2023-02-27T12:29:51;1.13;;;0.30;;
76693;SDS011;65625;52.136;5.424;2023-02-27T12:32:24;1.17;;;0.47;;
76693;SDS011;65625;52.136;5.424;2023-02-27T12:35:00;1.80;;;0.60;;
76693;SDS011;65625;52.136;5.424;2023-02-27T12:37:39;2.67;;;0.60;;
76693;SDS011;65625;52.136;5.424;2023-02-27T12:40:05;0.85;;;0.40;;
76693;SDS011;65625;52.136;5.424;2023-02-27T12:48:36;2.83;;;0.50;;
76693;SDS011;65625;52.136;5.424;2023-02-27T12:51:22;0.70;;;0.30;;
76693;SDS011;65625;52.136;5.424;2023-02-27T12:54:11;1.10;;;0.43;;
76693;SDS011;65625;52.136;5.424;2023-02-27T13:03:03;1.02;;;0.40;;
76693;SDS011;65625;52.136;5.424;2023-02-27T13:05:59;2.40;;;0.50;;
76693;SDS011;65625;52.136;5.424;2023-02-27T13:14:12;3.20;;;0.82;;
76693;SDS011;65625;52.136;5.424;2023-02-27T13:16:55;1.90;;;0.63;;
76693;SDS011;65625;52.136;5.424;2023-02-27T13:19:29;3.95;;;0.85;;
76693;SDS011;65625;52.136;5.424;2023-02-27T13:22:07;3.22;;;0.60;;
76693;SDS011;65625;52.136;5.424;2023-02-27T13:24:55;3.72;;;0.60;;
76693;SDS011;65625;52.136;5.424;2023-02-27T13:27:29;3.72;;;0.73;;
76693;SDS011;65625;52.136;5.424;2023-02-27T13:38:00;2.47;;;0.80;;
76693;SDS011;65625;52.136;5.424;2023-02-27T13:40:32;2.00;;;0.52;;
76693;SDS011;65625;52.136;5.424;2023-02-27T13:43:02;2.45;;;0.82;;
76693;SDS011;65625;52.136;5.424;2023-02-27T13:45:49;3.83;;;1.30;;
76693;SDS011;65625;52.136;5.424;2023-02-27T13:59:19;3.78;;;1.85;;
76693;SDS011;65625;52.136;5.424;2023-02-27T14:01:55;5.00;;;1.30;;
76693;SDS011;65625;52.136;5.424;2023-02-27T14:04:28;1.33;;;0.40;;
76693;SDS011;65625;52.136;5.424;2023-02-27T14:07:02;2.97;;;0.98;;
76693;SDS011;65625;52.136;5.424;2023-02-27T14:09:35;1.38;;;0.57;;
76693;SDS011;65625;52.136;5.424;2023-02-27T14:12:20;2.60;;;0.32;;
76693;SDS011;65625;52.136;5.424;2023-02-27T14:14:56;1.50;;;0.40;;
76693;SDS011;65625;52.136;5.424;2023-02-27T14:20:05;1.25;;;0.50;;
76693;SDS011;65625;52.136;5.424;2023-02-27T14:22:42;2.30;;;0.90;;
76693;SDS011;65625;52.136;5.424;2023-02-27T14:30:27;3.35;;;1.20;;
76693;SDS011;65625;52.136;5.424;2023-02-27T14:32:59;5.38;;;0.80;;
76693;SDS011;65625;52.136;5.424;2023-02-27T14:35:45;3.95;;;1.35;;
76693;SDS011;65625;52.136;5.424;2023-02-27T14:38:17;2.47;;;0.95;;
76693;SDS011;65625;52.136;5.424;2023-02-27T14:43:47;3.35;;;1.48;;
76693;SDS011;65625;52.136;5.424;2023-02-27T14:49:00;3.58;;;1.15;;
76693;SDS011;65625;52.136;5.424;2023-02-27T14:51:29;2.67;;;1.40;;
76693;SDS011;65625;52.136;5.424;2023-02-27T14:54:02;2.40;;;1.20;;
76693;SDS011;65625;52.136;5.424;2023-02-27T14:56:38;3.78;;;1.40;;
76693;SDS011;65625;52.136;5.424;2023-02-27T14:59:19;6.97;;;1.30;;
76693;SDS011;65625;52.136;5.424;2023-02-27T15:01:47;2.35;;;0.98;;
76693;SDS011;65625;52.136;5.424;2023-02-27T15:04:17;5.65;;;1.00;;
76693;SDS011;65625;52.136;5.424;2023-02-27T15:06:46;1.02;;;0.60;;
76693;SDS011;65625;52.136;5.424;2023-02-27T15:09:26;1.38;;;0.70;;
76693;SDS011;65625;52.136;5.424;2023-02-27T15:11:59;2.67;;;1.05;;
76693;SDS011;65625;52.136;5.424;2023-02-27T15:14:31;5.95;;;2.70;;
76693;SDS011;65625;52.136;5.424;2023-02-27T15:17:01;1.88;;;0.90;;
76693;SDS011;65625;52.136;5.424;2023-02-27T15:19:29;4.35;;;1.45;;
76693;SDS011;65625;52.136;5.424;2023-02-27T15:21:56;2.70;;;1.20;;
76693;SDS011;65625;52.136;5.424;2023-02-27T15:26:53;3.58;;;1.48;;
76693;SDS011;65625;52.136;5.424;2023-02-27T15:29:32;4.43;;;1.48;;
76693;SDS011;65625;52.136;5.424;2023-02-27T15:31:59;4.53;;;1.40;;
76693;SDS011;65625;52.136;5.424;2023-02-27T15:34:27;5.50;;;1.75;;
76693;SDS011;65625;52.136;5.424;2023-02-27T15:36:56;4.32;;;1.80;;
76693;SDS011;65625;52.136;5.424;2023-02-27T15:39:24;5.53;;;2.13;;
76693;SDS011;65625;52.136;5.424;2023-02-27T15:41:58;3.13;;;1.33;;
76693;SDS011;65625;52.136;5.424;2023-02-27T15:47:12;3.72;;;1.60;;
76693;SDS011;65625;52.136;5.424;2023-02-27T15:49:43;1.83;;;0.70;;
76693;SDS011;65625;52.136;5.424;2023-02-27T15:52:12;3.05;;;1.10;;
76693;SDS011;65625;52.136;5.424;2023-02-27T15:54:58;2.28;;;1.10;;
76693;SDS011;65625;52.136;5.424;2023-02-27T15:57:27;3.70;;;2.63;;
76693;SDS011;65625;52.136;5.424;2023-02-27T15:59:55;2.67;;;1.20;;
76693;SDS011;65625;52.136;5.424;2023-02-27T16:02:29;3.00;;;1.17;;
76693;SDS011;65625;52.136;5.424;2023-02-27T16:05:00;3.38;;;1.20;;
76693;SDS011;65625;52.136;5.424;2023-02-27T16:07:27;3.00;;;1.40;;
76693;SDS011;65625;52.136;5.424;2023-02-27T16:10:05;4.35;;;1.23;;
76693;SDS011;65625;52.136;5.424;2023-02-27T16:12:40;2.25;;;1.15;;
76693;SDS011;65625;52.136;5.424;2023-02-27T16:18:17;1.95;;;1.08;;
76693;SDS011;65625;52.136;5.424;2023-02-27T16:21:11;2.95;;;1.20;;
76693;SDS011;65625;52.136;5.424;2023-02-27T16:23:40;3.55;;;1.00;;
76693;SDS011;65625;52.136;5.424;2023-02-27T16:29:05;2.58;;;0.90;;
76693;SDS011;65625;52.136;5.424;2023-02-27T16:31:46;2.67;;;0.90;;
76693;SDS011;65625;52.136;5.424;2023-02-27T16:37:21;2.72;;;1.00;;
76693;SDS011;65625;52.136;5.424;2023-02-27T16:39:52;4.00;;;1.58;;
76693;SDS011;65625;52.136;5.424;2023-02-27T16:42:19;3.45;;;1.02;;
76693;SDS011;65625;52.136;5.424;2023-02-27T16:44:46;4.00;;;1.27;;
76693;SDS011;65625;52.136;5.424;2023-02-27T16:47:13;5.70;;;1.33;;
76693;SDS011;65625;52.136;5.424;2023-02-27T16:49:39;3.13;;;1.35;;
76693;SDS011;65625;52.136;5.424;2023-02-27T16:52:08;4.93;;;1.10;;
76693;SDS011;65625;52.136;5.424;2023-02-27T16:54:36;3.22;;;1.20;;
76693;SDS011;65625;52.136;5.424;2023-02-27T16:57:03;3.38;;;1.23;;
76693;SDS011;65625;52.136;5.424;2023-02-27T16:59:33;2.90;;;1.30;;
76693;SDS011;65625;52.136;5.424;2023-02-27T17:02:03;3.97;;;1.33;;
76693;SDS011;65625;52.136;5.424;2023-02-27T17:04:32;8.30;;;2.25;;
76693;SDS011;65625;52.136;5.424;2023-02-27T17:06:59;3.35;;;1.40;;
76693;SDS011;65625;52.136;5.424;2023-02-27T17:09:26;4.85;;;1.85;;
76693;SDS011;65625;52.136;5.424;2023-02-27T17:11:54;3.40;;;1.60;;
76693;SDS011;65625;52.136;5.424;2023-02-27T17:14:22;24.67;;;8.32;;
76693;SDS011;65625;52.136;5.424;2023-02-27T17:16:49;22.88;;;8.73;;
76693;SDS011;65625;52.136;5.424;2023-02-27T17:19:16;14.23;;;5.80;;
76693;SDS011;65625;52.136;5.424;2023-02-27T17:21:43;12.52;;;4.50;;
76693;SDS011;65625;52.136;5.424;2023-02-27T17:24:10;12.18;;;4.60;;
76693;SDS011;65625;52.136;5.424;2023-02-27T17:26:36;11.25;;;4.53;;
76693;SDS011;65625;52.136;5.424;2023-02-27T17:29:03;11.57;;;4.20;;
76693;SDS011;65625;52.136;5.424;2023-02-27T17:31:30;9.68;;;3.92;;
76693;SDS011;65625;52.136;5.424;2023-02-27T17:33:57;9.82;;;3.63;;
76693;SDS011;65625;52.136;5.424;2023-02-27T17:36:24;5.85;;;2.65;;
76693;SDS011;65625;52.136;5.424;2023-02-27T17:38:55;6.30;;;3.40;;
76693;SDS011;65625;52.136;5.424;2023-02-27T17:41:23;7.25;;;3.20;;
76693;SDS011;65625;52.136;5.424;2023-02-27T17:43:50;6.47;;;3.55;;
76693;SDS011;65625;52.136;5.424;2023-02-27T17:46:19;7.07;;;3.08;;
76693;SDS011;65625;52.136;5.424;2023-02-27T17:48:45;4.47;;;2.65;;
76693;SDS011;65625;52.136;5.424;2023-02-27T17:51:12;5.45;;;2.42;;
76693;SDS011;65625;52.136;5.424;2023-02-27T17:53:40;9.35;;;2.88;;
76693;SDS011;65625;52.136;5.424;2023-02-27T17:56:07;5.63;;;2.28;;
76693;SDS011;65625;52.136;5.424;2023-02-27T17:58:34;9.65;;;4.18;;
76693;SDS011;65625;52.136;5.424;2023-02-27T18:03:32;12.23;;;4.45;;
76693;SDS011;65625;52.136;5.424;2023-02-27T18:05:59;14.52;;;4.15;;
76693;SDS011;65625;52.136;5.424;2023-02-27T18:08:26;7.50;;;3.10;;
76693;SDS011;65625;52.136;5.424;2023-02-27T18:10:54;8.90;;;3.88;;